Time;durP1;ratioP1;P1;durP2;ratioP2;P2;SDS_P1;SDS_P2;PMS_P1;PMS_P2;Temp;Humidity;BMP_temperature;BMP_pressure;BME280_temperature;BME280_humidity;BME280_pressure;Samples;Min_cycle;Max_cycle;Signal;HPM_P1;HPM_P2
2022/12/03 00:02:00;;;;;;;17.03;9.70;;;;;;;;;;5055471;28;20546;-54
2022/12/03 00:04:25;;;;;;;17.57;10.50;;;;;;;;;;5055888;28;20422;-55
2022/12/03 00:06:51;;;;;;;15.20;11.20;;;;;;;;;;5009435;28;20454;-53
2022/12/03 00:09:17;;;;;;;15.87;11.23;;;;;;;;;;5057381;28;20963;-56
2022/12/03 00:11:43;;;;;;;21.17;12.83;;;;;;;;;;5056669;28;20480;-57
2022/12/03 00:14:09;;;;;;;25.97;12.70;;;;;;;;;;5055819;28;20436;-57
2022/12/03 00:16:35;;;;;;;18.67;10.27;;;;;;;;;;5030233;28;20588;-55
2022/12/03 00:19:01;;;;;;;21.07;12.73;;;;;;;;;;5052340;28;20425;-52
2022/12/03 00:21:27;;;;;;;19.73;11.90;;;;;;;;;;5054688;28;21060;-55
2022/12/03 00:23:53;;;;;;;25.07;12.80;;;;;;;;;;5052546;28;20484;-55
2022/12/03 00:26:19;;;;;;;25.00;12.67;;;;;;;;;;5050349;28;20431;-55
2022/12/03 00:28:45;;;;;;;25.07;11.80;;;;;;;;;;5058223;28;20429;-56
2022/12/03 00:31:11;;;;;;;24.23;12.53;;;;;;;;;;5029751;28;20448;-54
2022/12/03 00:33:37;;;;;;;20.53;11.37;;;;;;;;;;5053712;28;20434;-55
2022/12/03 00:36:03;;;;;;;17.47;9.93;;;;;;;;;;5009059;28;20452;-56
2022/12/03 00:38:29;;;;;;;21.10;11.43;;;;;;;;;;5057605;28;20476;-56
2022/12/03 00:40:55;;;;;;;15.27;10.20;;;;;;;;;;5049602;28;20949;-56
2022/12/03 00:43:21;;;;;;;18.97;11.83;;;;;;;;;;5058533;28;20445;-54
2022/12/03 00:45:47;;;;;;;20.37;11.07;;;;;;;;;;5024645;28;23072;-55
2022/12/03 00:48:13;;;;;;;18.07;12.60;;;;;;;;;;5058018;28;20530;-55
2022/12/03 00:50:39;;;;;;;18.13;11.40;;;;;;;;;;5037684;28;20449;-54
2022/12/03 00:53:05;;;;;;;16.43;11.70;;;;;;;;;;5054903;28;20480;-56
2022/12/03 00:55:31;;;;;;;25.70;11.73;;;;;;;;;;5029285;28;20453;-54
2022/12/03 00:57:57;;;;;;;18.63;11.80;;;;;;;;;;5052990;28;20524;-52
2022/12/03 01:00:24;;;;;;;19.23;11.90;;;;;;;;;;5048999;28;21276;-54
2022/12/03 01:02:50;;;;;;;22.23;12.53;;;;;;;;;;5049075;28;20446;-55
2022/12/03 01:05:17;;;;;;;18.37;11.00;;;;;;;;;;5015412;28;21187;-54
2022/12/03 01:07:42;;;;;;;17.20;12.00;;;;;;;;;;5045516;28;20434;-57
2022/12/03 01:10:09;;;;;;;21.20;10.37;;;;;;;;;;5003897;28;20488;-56
2022/12/03 01:12:35;;;;;;;21.73;13.20;;;;;;;;;;5055181;28;21036;-55
2022/12/03 01:15:01;;;;;;;20.50;11.57;;;;;;;;;;5029304;28;20441;-54
2022/12/03 01:17:27;;;;;;;19.67;10.63;;;;;;;;;;5052886;28;21017;-55
2022/12/03 01:19:53;;;;;;;16.60;10.63;;;;;;;;;;5050601;28;20533;-54
2022/12/03 01:22:19;;;;;;;16.47;10.03;;;;;;;;;;5054773;28;20548;-55
2022/12/03 01:24:45;;;;;;;19.33;11.27;;;;;;;;;;5019959;28;20477;-54
2022/12/03 01:27:11;;;;;;;20.87;10.83;;;;;;;;;;5050967;28;20676;-56
2022/12/03 01:29:36;;;;;;;18.63;11.27;;;;;;;;;;5046941;28;20540;-55
2022/12/03 01:32:18;;;;;;;16.73;10.93;;;;;;;;;;5048273;28;20499;-54
2022/12/03 01:34:51;;;;;;;16.17;9.10;;;;;;;;;;5021878;28;21359;-57
2022/12/03 01:37:17;;;;;;;19.07;9.30;;;;;;;;;;5053062;28;20914;-55
2022/12/03 01:39:43;;;;;;;20.17;10.70;;;;;;;;;;5009187;28;21087;-53
2022/12/03 01:42:11;;;;;;;14.73;9.97;;;;;;;;;;5053726;28;22189;-56
2022/12/03 01:44:37;;;;;;;18.97;10.47;;;;;;;;;;5030038;28;20433;-55
2022/12/03 01:47:04;;;;;;;17.47;10.63;;;;;;;;;;5045815;28;20442;-54
2022/12/03 01:49:45;;;;;;;19.53;10.63;;;;;;;;;;5045397;28;20523;-55
2022/12/03 01:52:12;;;;;;;16.00;9.57;;;;;;;;;;5052270;28;20552;-54
2022/12/03 01:54:39;;;;;;;15.70;10.47;;;;;;;;;;5032183;28;20534;-55
2022/12/03 01:57:05;;;;;;;21.20;10.80;;;;;;;;;;5050721;28;20456;-55
2022/12/03 01:59:35;;;;;;;19.63;11.43;;;;;;;;;;5056037;28;20501;-57
2022/12/03 02:02:14;;;;;;;17.60;10.80;;;;;;;;;;5052381;28;20530;-54
2022/12/03 02:04:40;;;;;;;17.80;10.70;;;;;;;;;;5017423;28;20456;-56
2022/12/03 02:07:24;;;;;;;21.83;11.50;;;;;;;;;;5065416;28;20475;-54
2022/12/03 02:09:50;;;;;;;19.23;10.10;;;;;;;;;;5010799;28;20441;-55
2022/12/03 02:12:18;;;;;;;14.67;9.60;;;;;;;;;;5057649;28;20476;-55
2022/12/03 02:14:44;;;;;;;19.03;10.57;;;;;;;;;;5054008;28;21523;-55
2022/12/03 02:17:11;;;;;;;22.73;10.63;;;;;;;;;;5072364;28;20437;-53
2022/12/03 02:19:37;;;;;;;20.07;10.73;;;;;;;;;;5032786;28;20438;-54
2022/12/03 02:22:12;;;;;;;21.70;10.77;;;;;;;;;;5049880;28;20523;-55
2022/12/03 02:24:40;;;;;;;19.00;11.10;;;;;;;;;;5038092;28;20571;-56
2022/12/03 02:27:06;;;;;;;17.90;10.20;;;;;;;;;;5051908;28;20434;-53
2022/12/03 02:29:32;;;;;;;16.37;10.90;;;;;;;;;;5052330;28;20437;-55
2022/12/03 02:31:58;;;;;;;15.90;11.00;;;;;;;;;;5050545;28;20925;-55
2022/12/03 02:34:34;;;;;;;14.70;9.60;;;;;;;;;;5053731;28;21046;-55
2022/12/03 02:37:00;;;;;;;23.10;11.10;;;;;;;;;;5027116;28;20429;-56
2022/12/03 02:39:25;;;;;;;14.33;10.90;;;;;;;;;;5060513;28;20512;-55
2022/12/03 02:44:36;;;;;;;22.37;11.03;;;;;;;;;;5067057;28;20435;-54
2022/12/03 02:47:02;;;;;;;15.17;11.73;;;;;;;;;;5023716;28;20802;-54
2022/12/03 02:49:28;;;;;;;19.50;11.60;;;;;;;;;;5051701;28;21203;-55
2022/12/03 02:51:54;;;;;;;18.53;10.43;;;;;;;;;;5025504;28;20789;-55
2022/12/03 02:54:20;;;;;;;16.07;10.43;;;;;;;;;;5055998;28;20512;-54
2022/12/03 02:56:46;;;;;;;18.70;10.80;;;;;;;;;;5039002;28;20450;-58
2022/12/03 02:59:11;;;;;;;17.23;10.37;;;;;;;;;;5034786;28;20518;-56
2022/12/03 03:01:37;;;;;;;15.67;9.77;;;;;;;;;;5051009;28;20521;-56
2022/12/03 03:04:03;;;;;;;12.73;8.83;;;;;;;;;;5051116;28;20529;-56
2022/12/03 03:06:29;;;;;;;17.60;10.40;;;;;;;;;;5045306;28;20445;-54
2022/12/03 03:08:55;;;;;;;13.63;10.00;;;;;;;;;;5054208;28;21027;-56
2022/12/03 03:11:21;;;;;;;12.33;9.77;;;;;;;;;;5064570;28;20441;-55
2022/12/03 03:13:47;;;;;;;16.93;10.23;;;;;;;;;;5054112;28;20464;-55
2022/12/03 03:16:13;;;;;;;18.50;10.00;;;;;;;;;;5010594;28;20445;-56
2022/12/03 03:18:39;;;;;;;20.70;9.33;;;;;;;;;;5064172;28;20461;-56
2022/12/03 03:21:05;;;;;;;16.90;11.27;;;;;;;;;;5026935;28;20470;-55
2022/12/03 03:23:31;;;;;;;14.83;8.90;;;;;;;;;;5050018;28;21210;-54
2022/12/03 03:25:57;;;;;;;17.60;9.53;;;;;;;;;;5051095;28;20524;-56
2022/12/03 03:28:23;;;;;;;16.37;10.33;;;;;;;;;;5057027;28;20540;-56
2022/12/03 03:30:49;;;;;;;14.27;8.93;;;;;;;;;;5047595;28;20449;-54
2022/12/03 03:33:15;;;;;;;18.00;9.97;;;;;;;;;;5057072;28;20540;-55
2022/12/03 03:35:41;;;;;;;14.20;9.70;;;;;;;;;;5024692;28;20429;-56
2022/12/03 03:38:07;;;;;;;16.07;9.43;;;;;;;;;;5057574;28;21115;-56
2022/12/03 03:40:33;;;;;;;17.77;10.50;;;;;;;;;;5047117;28;20990;-55
2022/12/03 03:42:59;;;;;;;13.27;8.87;;;;;;;;;;5047707;28;20935;-56
2022/12/03 03:45:25;;;;;;;15.77;9.93;;;;;;;;;;5054830;28;21231;-55
2022/12/03 03:47:51;;;;;;;18.30;11.10;;;;;;;;;;5057348;28;20460;-56
2022/12/03 03:50:17;;;;;;;18.07;9.57;;;;;;;;;;5040003;28;20514;-55
2022/12/03 03:52:43;;;;;;;19.00;11.10;;;;;;;;;;5052835;28;21001;-56
2022/12/03 03:55:10;;;;;;;18.53;9.43;;;;;;;;;;5041871;28;20432;-56
2022/12/03 03:57:36;;;;;;;14.57;10.03;;;;;;;;;;5036635;28;21284;-55
2022/12/03 04:00:03;;;;;;;20.83;10.27;;;;;;;;;;5072206;28;20437;-56
2022/12/03 04:02:29;;;;;;;19.90;12.20;;;;;;;;;;5048826;28;21123;-55
2022/12/03 04:04:55;;;;;;;13.10;9.10;;;;;;;;;;5051761;28;20434;-55
2022/12/03 04:07:21;;;;;;;16.37;9.40;;;;;;;;;;5034852;28;20441;-56
2022/12/03 04:09:47;;;;;;;19.97;10.40;;;;;;;;;;5056603;28;20518;-55
2022/12/03 04:14:57;;;;;;;19.13;9.87;;;;;;;;;;5059498;28;20541;-53
2022/12/03 04:17:23;;;;;;;17.33;12.30;;;;;;;;;;5051889;28;20453;-56
2022/12/03 04:19:49;;;;;;;15.20;9.50;;;;;;;;;;5056136;28;20445;-62
2022/12/03 04:30:29;;;;;;;19.20;10.37;;;;;;;;;;5054235;28;20863;-55
2022/12/03 04:35:42;;;;;;;20.23;11.37;;;;;;;;;;5057208;28;20472;-55
2022/12/03 04:38:09;;;;;;;19.73;11.67;;;;;;;;;;5032780;28;20477;-55
2022/12/03 04:43:19;;;;;;;22.57;13.03;;;;;;;;;;5058828;28;21203;-56
2022/12/03 04:45:45;;;;;;;17.50;9.97;;;;;;;;;;5053072;28;20450;-55
2022/12/03 04:48:11;;;;;;;21.20;11.67;;;;;;;;;;5052939;28;20441;-57
2022/12/03 04:50:37;;;;;;;15.83;10.50;;;;;;;;;;5056853;28;20930;-56
2022/12/03 04:53:03;;;;;;;17.23;10.63;;;;;;;;;;5047782;28;20505;-57
2022/12/03 04:55:29;;;;;;;13.30;9.20;;;;;;;;;;5054028;28;20436;-56
2022/12/03 04:57:55;;;;;;;16.80;11.57;;;;;;;;;;5008606;28;20461;-56
2022/12/03 05:00:21;;;;;;;17.67;12.10;;;;;;;;;;5052048;28;20434;-55
2022/12/03 05:02:47;;;;;;;20.77;12.27;;;;;;;;;;5054168;28;20553;-54
2022/12/03 05:05:13;;;;;;;16.03;10.73;;;;;;;;;;5054449;28;20438;-53
2022/12/03 05:07:39;;;;;;;19.40;10.77;;;;;;;;;;5025966;28;20464;-56
2022/12/03 05:10:05;;;;;;;20.40;9.80;;;;;;;;;;5050250;28;20472;-55
2022/12/03 05:12:31;;;;;;;21.00;12.63;;;;;;;;;;5045523;28;20485;-55
2022/12/03 05:14:57;;;;;;;14.70;9.23;;;;;;;;;;5059920;28;20566;-55
2022/12/03 05:17:23;;;;;;;15.40;8.50;;;;;;;;;;5057109;28;20436;-54
2022/12/03 05:22:33;;;;;;;17.43;10.40;;;;;;;;;;5051465;28;20624;-53
2022/12/03 05:24:59;;;;;;;19.00;10.20;;;;;;;;;;5054813;28;21005;-54
2022/12/03 05:27:25;;;;;;;17.03;10.40;;;;;;;;;;5025511;28;20441;-55
2022/12/03 05:29:51;;;;;;;19.10;11.37;;;;;;;;;;5056856;28;20445;-55
2022/12/03 05:32:18;;;;;;;16.50;10.10;;;;;;;;;;5007486;28;20925;-55
2022/12/03 05:34:43;;;;;;;16.00;11.43;;;;;;;;;;5053367;28;20425;-55
2022/12/03 05:37:09;;;;;;;16.23;10.93;;;;;;;;;;5026218;28;20452;-56
2022/12/03 05:39:36;;;;;;;19.70;9.73;;;;;;;;;;5053208;28;20533;-55
2022/12/03 05:44:46;;;;;;;17.73;10.57;;;;;;;;;;5057558;28;20524;-55
2022/12/03 05:47:12;;;;;;;20.27;12.07;;;;;;;;;;5034356;28;21040;-55
2022/12/03 05:49:38;;;;;;;18.37;11.40;;;;;;;;;;5053247;28;20429;-55
2022/12/03 05:52:04;;;;;;;18.50;10.87;;;;;;;;;;5050602;28;20458;-54
2022/12/03 05:54:30;;;;;;;25.87;12.03;;;;;;;;;;5056121;28;20774;-55
2022/12/03 05:56:56;;;;;;;20.10;12.07;;;;;;;;;;5039280;28;21344;-55
2022/12/03 05:59:22;;;;;;;19.67;11.43;;;;;;;;;;5039893;28;20509;-55
2022/12/03 06:01:48;;;;;;;19.47;10.57;;;;;;;;;;5033073;28;20448;-56
2022/12/03 06:04:14;;;;;;;15.97;11.20;;;;;;;;;;5009717;28;20491;-55
2022/12/03 06:06:40;;;;;;;19.67;10.97;;;;;;;;;;5039587;28;20445;-54
2022/12/03 06:09:06;;;;;;;16.90;10.70;;;;;;;;;;5046801;28;20448;-54
2022/12/03 06:11:33;;;;;;;17.73;10.90;;;;;;;;;;5023564;28;20484;-53
2022/12/03 06:13:59;;;;;;;18.00;11.13;;;;;;;;;;5045668;28;20431;-53
2022/12/03 06:16:25;;;;;;;22.90;12.50;;;;;;;;;;5021801;28;21215;-53
2022/12/03 06:18:51;;;;;;;14.07;9.60;;;;;;;;;;5059390;28;21049;-54
2022/12/03 06:21:17;;;;;;;16.07;10.40;;;;;;;;;;5023145;28;20615;-54
2022/12/03 06:23:43;;;;;;;17.10;10.60;;;;;;;;;;5049553;28;23991;-55
2022/12/03 06:26:10;;;;;;;20.67;9.97;;;;;;;;;;5051597;28;20437;-54
2022/12/03 06:28:36;;;;;;;19.20;10.33;;;;;;;;;;5051027;28;20430;-53
2022/12/03 06:31:02;;;;;;;16.20;11.17;;;;;;;;;;5025582;28;22447;-54
2022/12/03 06:33:28;;;;;;;19.37;10.30;;;;;;;;;;5055985;28;20496;-55
2022/12/03 06:35:54;;;;;;;27.10;11.80;;;;;;;;;;5006574;28;20542;-54
2022/12/03 06:38:20;;;;;;;19.87;12.10;;;;;;;;;;5046687;28;20434;-55
2022/12/03 06:40:47;;;;;;;17.37;10.23;;;;;;;;;;5027179;28;21089;-56
2022/12/03 06:43:13;;;;;;;19.10;12.83;;;;;;;;;;5056377;28;20440;-55
2022/12/03 06:45:39;;;;;;;23.43;12.57;;;;;;;;;;5038927;28;21142;-56
2022/12/03 06:48:05;;;;;;;18.30;12.10;;;;;;;;;;5045308;28;20417;-55
2022/12/03 06:50:31;;;;;;;21.00;11.47;;;;;;;;;;5035517;28;20882;-55
2022/12/03 06:52:57;;;;;;;19.97;11.30;;;;;;;;;;5053086;28;20560;-53
2022/12/03 06:55:23;;;;;;;19.20;10.77;;;;;;;;;;5049649;28;20513;-56
2022/12/03 06:57:49;;;;;;;19.37;10.47;;;;;;;;;;5060532;28;20535;-55
2022/12/03 07:00:15;;;;;;;23.07;12.43;;;;;;;;;;5046927;28;20482;-56
2022/12/03 07:02:43;;;;;;;22.33;11.30;;;;;;;;;;5044064;28;21148;-55
2022/12/03 07:05:09;;;;;;;21.77;12.20;;;;;;;;;;5051182;28;20489;-56
2022/12/03 07:07:35;;;;;;;18.87;12.27;;;;;;;;;;5033856;28;20440;-55
2022/12/03 07:10:01;;;;;;;20.90;12.40;;;;;;;;;;5054489;28;20794;-56
2022/12/03 07:12:27;;;;;;;20.27;10.27;;;;;;;;;;5012596;28;20464;-53
2022/12/03 07:14:53;;;;;;;17.33;10.10;;;;;;;;;;5054796;28;20503;-54
2022/12/03 07:17:19;;;;;;;21.73;10.67;;;;;;;;;;5032265;28;20540;-60
2022/12/03 07:19:45;;;;;;;26.33;13.30;;;;;;;;;;5047859;28;21157;-55
2022/12/03 07:22:11;;;;;;;19.20;11.90;;;;;;;;;;5024732;28;20436;-55
2022/12/03 07:24:37;;;;;;;21.97;12.93;;;;;;;;;;5042215;28;20530;-54
2022/12/03 07:27:03;;;;;;;21.87;12.70;;;;;;;;;;5042800;28;20417;-56
2022/12/03 07:29:29;;;;;;;17.53;11.10;;;;;;;;;;5050222;28;20452;-55
2022/12/03 07:31:55;;;;;;;16.83;10.23;;;;;;;;;;5027198;28;20476;-56
2022/12/03 07:34:20;;;;;;;23.17;11.53;;;;;;;;;;5047468;28;20441;-55
2022/12/03 07:36:46;;;;;;;24.83;13.37;;;;;;;;;;5043283;28;21196;-55
2022/12/03 07:39:13;;;;;;;21.20;13.70;;;;;;;;;;5037383;28;20445;-54
2022/12/03 07:41:39;;;;;;;20.60;12.17;;;;;;;;;;5045554;28;20468;-55
2022/12/03 07:44:05;;;;;;;25.47;14.43;;;;;;;;;;5020951;28;20820;-55
2022/12/03 07:46:31;;;;;;;19.90;12.87;;;;;;;;;;5066598;28;20434;-56
2022/12/03 07:48:57;;;;;;;22.60;13.30;;;;;;;;;;5036330;28;20755;-55
2022/12/03 07:51:23;;;;;;;26.57;13.27;;;;;;;;;;5056267;28;20539;-56
2022/12/03 07:53:49;;;;;;;27.00;14.53;;;;;;;;;;5046247;28;20528;-53
2022/12/03 07:56:15;;;;;;;25.27;12.10;;;;;;;;;;5061917;28;21014;-54
2022/12/03 07:58:41;;;;;;;24.70;14.03;;;;;;;;;;5032152;28;20558;-55
2022/12/03 08:01:06;;;;;;;26.73;13.67;;;;;;;;;;5050715;28;20461;-55
2022/12/03 08:03:32;;;;;;;25.20;12.53;;;;;;;;;;5049574;28;20433;-55
2022/12/03 08:05:58;;;;;;;23.63;10.70;;;;;;;;;;5053891;28;20918;-55
2022/12/03 08:08:24;;;;;;;21.00;13.27;;;;;;;;;;5032201;28;20436;-55
2022/12/03 08:10:50;;;;;;;24.50;12.60;;;;;;;;;;5060407;28;20703;-55
2022/12/03 08:13:17;;;;;;;23.20;11.93;;;;;;;;;;5032221;28;20735;-53
2022/12/03 08:15:43;;;;;;;23.00;12.20;;;;;;;;;;5060908;28;20426;-55
2022/12/03 08:18:13;;;;;;;23.67;14.30;;;;;;;;;;5006131;28;20449;-55
2022/12/03 08:20:40;;;;;;;27.53;12.77;;;;;;;;;;5045182;28;20546;-55
2022/12/03 08:23:16;;;;;;;20.40;12.33;;;;;;;;;;5051034;28;20448;-55
2022/12/03 08:25:42;;;;;;;27.13;12.27;;;;;;;;;;5054768;28;20436;-55
2022/12/03 08:28:11;;;;;;;25.27;12.07;;;;;;;;;;5029163;28;20433;-55
2022/12/03 08:30:37;;;;;;;26.23;14.90;;;;;;;;;;5067568;28;20495;-56
2022/12/03 08:33:09;;;;;;;20.67;11.50;;;;;;;;;;5049407;28;20507;-56
2022/12/03 08:35:35;;;;;;;20.83;12.97;;;;;;;;;;5042734;28;20449;-55
2022/12/03 08:38:05;;;;;;;29.33;13.80;;;;;;;;;;5040511;28;20456;-55
2022/12/03 08:40:35;;;;;;;29.40;13.90;;;;;;;;;;5031908;28;20773;-55
2022/12/03 08:43:01;;;;;;;20.63;12.47;;;;;;;;;;5048117;28;20423;-54
2022/12/03 08:45:38;;;;;;;23.03;13.00;;;;;;;;;;5029414;28;20463;-55
2022/12/03 08:48:13;;;;;;;26.50;13.13;;;;;;;;;;5051101;28;20462;-53
2022/12/03 08:50:40;;;;;;;25.10;13.47;;;;;;;;;;5010947;28;20494;-54
2022/12/03 08:53:08;;;;;;;29.87;13.87;;;;;;;;;;5046459;28;20504;-56
2022/12/03 08:55:35;;;;;;;22.97;12.40;;;;;;;;;;5054224;28;20418;-56
2022/12/03 08:58:34;;;;;;;23.97;14.67;;;;;;;;;;5059250;28;20508;-57
2022/12/03 09:01:05;;;;;;;19.80;11.07;;;;;;;;;;5012325;28;20456;-55
2022/12/03 09:03:31;;;;;;;27.13;12.90;;;;;;;;;;5050336;28;20446;-55
2022/12/03 09:05:57;;;;;;;23.43;12.47;;;;;;;;;;5043554;28;20441;-55
2022/12/03 09:08:23;;;;;;;20.40;12.37;;;;;;;;;;5057278;28;20978;-55
2022/12/03 09:10:49;;;;;;;19.03;11.57;;;;;;;;;;5037282;28;20561;-55
2022/12/03 09:13:15;;;;;;;25.60;13.13;;;;;;;;;;5020504;28;20485;-56
2022/12/03 09:15:41;;;;;;;19.73;12.53;;;;;;;;;;5053379;28;20964;-55
2022/12/03 09:18:07;;;;;;;18.10;11.40;;;;;;;;;;5031924;28;20457;-54
2022/12/03 09:20:33;;;;;;;22.27;11.47;;;;;;;;;;5050904;28;20806;-56
2022/12/03 09:22:59;;;;;;;16.70;10.67;;;;;;;;;;4981865;28;20713;-57
2022/12/03 09:25:25;;;;;;;24.90;13.50;;;;;;;;;;5052970;28;20444;-58
2022/12/03 09:27:51;;;;;;;22.07;11.67;;;;;;;;;;5026838;28;20453;-57
2022/12/03 09:30:17;;;;;;;19.53;12.30;;;;;;;;;;5052817;28;20433;-55
2022/12/03 09:32:43;;;;;;;20.10;11.43;;;;;;;;;;5018450;28;20473;-57
2022/12/03 09:35:09;;;;;;;21.63;11.00;;;;;;;;;;5051549;28;20930;-56
2022/12/03 09:37:35;;;;;;;18.80;10.60;;;;;;;;;;5037944;28;22212;-55
2022/12/03 09:40:01;;;;;;;26.17;13.87;;;;;;;;;;5032511;28;20442;-56
2022/12/03 09:42:27;;;;;;;24.77;13.20;;;;;;;;;;5047835;28;20452;-56
2022/12/03 09:44:53;;;;;;;29.50;15.50;;;;;;;;;;5039039;28;20449;-56
2022/12/03 09:47:19;;;;;;;30.83;18.03;;;;;;;;;;5041643;28;20426;-55
2022/12/03 09:49:45;;;;;;;29.60;16.30;;;;;;;;;;5040515;28;20507;-55
2022/12/03 09:52:12;;;;;;;24.87;12.83;;;;;;;;;;5032700;28;20547;-55
2022/12/03 09:54:38;;;;;;;22.07;12.40;;;;;;;;;;5015990;28;20453;-56
2022/12/03 09:57:04;;;;;;;23.80;12.83;;;;;;;;;;5055642;28;20437;-57
2022/12/03 09:59:31;;;;;;;23.00;12.43;;;;;;;;;;5038756;28;20946;-55
2022/12/03 10:01:57;;;;;;;25.83;12.77;;;;;;;;;;5054426;28;20516;-55
2022/12/03 10:04:23;;;;;;;24.13;11.70;;;;;;;;;;5040902;28;20582;-55
2022/12/03 10:06:49;;;;;;;25.07;11.70;;;;;;;;;;5044304;28;20445;-54
2022/12/03 10:09:19;;;;;;;20.67;13.20;;;;;;;;;;5028415;28;20442;-55
2022/12/03 10:11:45;;;;;;;23.70;13.37;;;;;;;;;;5054177;28;20469;-54
2022/12/03 10:14:11;;;;;;;24.40;10.97;;;;;;;;;;5046085;28;21002;-59
2022/12/03 10:16:39;;;;;;;21.83;12.73;;;;;;;;;;5050122;28;20756;-56
2022/12/03 10:19:04;;;;;;;14.70;8.67;;;;;;;;;;5034666;28;20501;-53
2022/12/03 10:21:31;;;;;;;18.80;8.83;;;;;;;;;;5039159;28;20446;-55
2022/12/03 10:24:16;;;;;;;21.70;12.10;;;;;;;;;;5014736;28;20477;-54
2022/12/03 10:26:42;;;;;;;23.00;9.60;;;;;;;;;;5053998;28;23787;-57
2022/12/03 10:29:12;;;;;;;19.47;11.10;;;;;;;;;;5041711;28;20954;-56
2022/12/03 10:31:38;;;;;;;19.13;9.97;;;;;;;;;;5044853;28;20609;-56
2022/12/03 10:34:04;;;;;;;16.50;9.80;;;;;;;;;;5035326;28;20456;-56
2022/12/03 10:36:30;;;;;;;17.53;9.57;;;;;;;;;;5032363;28;20445;-55
2022/12/03 10:39:08;;;;;;;18.67;11.07;;;;;;;;;;5050842;28;20515;-56
2022/12/03 10:41:34;;;;;;;18.87;10.20;;;;;;;;;;5035594;28;20537;-55
2022/12/03 10:44:19;;;;;;;18.70;8.97;;;;;;;;;;5017405;28;20518;-56
2022/12/03 10:46:46;;;;;;;19.13;9.87;;;;;;;;;;5036616;28;20514;-56
2022/12/03 10:49:18;;;;;;;25.20;11.97;;;;;;;;;;5026119;28;20493;-55
2022/12/03 10:51:47;;;;;;;25.43;10.03;;;;;;;;;;5013109;28;21964;-54
2022/12/03 10:54:22;;;;;;;20.07;10.13;;;;;;;;;;5001620;28;20461;-55
2022/12/03 10:56:49;;;;;;;19.50;10.20;;;;;;;;;;5023590;28;20453;-55
2022/12/03 10:59:19;;;;;;;18.00;10.30;;;;;;;;;;5036102;28;20533;-55
2022/12/03 11:01:45;;;;;;;18.40;10.57;;;;;;;;;;4510293;28;15038516;-54
2022/12/03 11:04:15;;;;;;;15.07;9.70;;;;;;;;;;5039418;28;22073;-55
2022/12/03 11:06:40;;;;;;;18.47;10.17;;;;;;;;;;5042027;28;20425;-54
2022/12/03 11:09:11;;;;;;;19.90;11.10;;;;;;;;;;5021296;28;21052;-54
2022/12/03 11:11:38;;;;;;;17.03;10.97;;;;;;;;;;5069414;28;20547;-54
2022/12/03 11:14:04;;;;;;;16.93;10.20;;;;;;;;;;5025840;28;20442;-56
2022/12/03 11:16:39;;;;;;;16.73;9.53;;;;;;;;;;5064093;28;20441;-55
2022/12/03 11:19:16;;;;;;;24.87;13.20;;;;;;;;;;5051887;28;20516;-56
2022/12/03 11:22:00;;;;;;;19.70;9.67;;;;;;;;;;5057104;28;21233;-53
2022/12/03 11:24:27;;;;;;;16.53;9.03;;;;;;;;;;4975998;28;20752;-54
2022/12/03 11:26:53;;;;;;;18.20;11.07;;;;;;;;;;5051248;28;20430;-55
2022/12/03 11:29:22;;;;;;;16.03;9.47;;;;;;;;;;5032762;28;20506;-54
2022/12/03 11:31:48;;;;;;;17.20;9.37;;;;;;;;;;5050176;28;20500;-56
2022/12/03 11:34:17;;;;;;;24.13;10.63;;;;;;;;;;5055296;28;20426;-56
2022/12/03 11:37:02;;;;;;;15.70;8.50;;;;;;;;;;5054128;28;20438;-54
2022/12/03 11:39:48;;;;;;;19.90;10.33;;;;;;;;;;5026623;28;20449;-54
2022/12/03 11:45:08;;;;;;;16.13;9.33;;;;;;;;;;5034026;28;20455;-61
2022/12/03 11:47:58;;;;;;;20.00;10.30;;;;;;;;;;5077267;28;20959;-55
2022/12/03 11:50:37;;;;;;;17.73;10.10;;;;;;;;;;5021322;28;20450;-56
2022/12/03 11:53:17;;;;;;;18.60;9.40;;;;;;;;;;5047546;28;21085;-55
2022/12/03 11:55:45;;;;;;;19.60;8.93;;;;;;;;;;5013607;28;20461;-54
2022/12/03 11:58:37;;;;;;;13.93;10.00;;;;;;;;;;5046606;28;20440;-55
2022/12/03 12:01:04;;;;;;;14.90;9.63;;;;;;;;;;5024997;28;20465;-53
2022/12/03 12:03:50;;;;;;;17.93;8.90;;;;;;;;;;5058139;28;20452;-58
2022/12/03 12:06:19;;;;;;;18.10;9.87;;;;;;;;;;5058495;28;20523;-56
2022/12/03 12:08:49;;;;;;;19.50;11.10;;;;;;;;;;5051900;28;20863;-56
2022/12/03 12:11:36;;;;;;;14.90;9.30;;;;;;;;;;5041922;28;21234;-54
2022/12/03 12:14:06;;;;;;;15.80;9.53;;;;;;;;;;5044727;28;20461;-56
2022/12/03 12:16:50;;;;;;;16.20;8.60;;;;;;;;;;5053736;28;20469;-55
2022/12/03 12:19:34;;;;;;;11.60;7.47;;;;;;;;;;5033423;28;20801;-56
2022/12/03 12:22:19;;;;;;;18.90;11.30;;;;;;;;;;5058673;28;20846;-54
2022/12/03 12:24:50;;;;;;;13.90;9.00;;;;;;;;;;5007665;28;20583;-53
2022/12/03 12:27:16;;;;;;;13.93;8.90;;;;;;;;;;5047529;28;20445;-53
2022/12/03 12:29:43;;;;;;;19.07;9.90;;;;;;;;;;5064788;28;20418;-57
2022/12/03 12:32:13;;;;;;;17.40;8.23;;;;;;;;;;5058846;28;20542;-56
2022/12/03 12:34:40;;;;;;;14.80;8.27;;;;;;;;;;5029713;28;21465;-57
2022/12/03 12:37:30;;;;;;;17.10;8.13;;;;;;;;;;5067268;28;20449;-57
2022/12/03 12:39:56;;;;;;;15.70;10.50;;;;;;;;;;5034734;28;20510;-53
2022/12/03 12:42:25;;;;;;;16.30;9.10;;;;;;;;;;5062806;28;20442;-58
2022/12/03 12:44:51;;;;;;;16.77;8.70;;;;;;;;;;5033661;28;20430;-54
2022/12/03 12:47:17;;;;;;;17.37;10.30;;;;;;;;;;5053888;28;20528;-55
2022/12/03 12:49:43;;;;;;;18.50;8.97;;;;;;;;;;5054179;28;20529;-55
2022/12/03 12:52:12;;;;;;;13.10;7.57;;;;;;;;;;5061682;28;20477;-55
2022/12/03 12:54:38;;;;;;;15.90;10.10;;;;;;;;;;5010241;28;20450;-55
2022/12/03 12:57:04;;;;;;;16.90;8.67;;;;;;;;;;5034425;28;20922;-56
2022/12/03 12:59:30;;;;;;;16.13;9.67;;;;;;;;;;5033684;28;20863;-55
2022/12/03 13:01:56;;;;;;;15.03;7.67;;;;;;;;;;5063806;28;20497;-55
2022/12/03 13:04:23;;;;;;;14.90;8.20;;;;;;;;;;5057642;28;20710;-55
2022/12/03 13:06:52;;;;;;;14.67;9.27;;;;;;;;;;5030072;28;21036;-57
2022/12/03 13:09:19;;;;;;;15.10;7.60;;;;;;;;;;5058482;28;20410;-57
2022/12/03 13:11:45;;;;;;;19.93;8.90;;;;;;;;;;5018880;28;20440;-56
2022/12/03 13:14:13;;;;;;;12.43;8.63;;;;;;;;;;5059376;28;20510;-55
2022/12/03 13:16:39;;;;;;;19.77;9.80;;;;;;;;;;5025944;28;20453;-54
2022/12/03 13:19:14;;;;;;;17.30;8.37;;;;;;;;;;5059034;28;20486;-54
2022/12/03 13:21:41;;;;;;;15.50;7.60;;;;;;;;;;5019814;28;20491;-54
2022/12/03 13:24:29;;;;;;;16.67;8.60;;;;;;;;;;5053420;28;20950;-54
2022/12/03 13:26:55;;;;;;;17.97;8.20;;;;;;;;;;5006451;28;20507;-55
2022/12/03 13:29:24;;;;;;;13.27;10.47;;;;;;;;;;5020100;28;20426;-52
2022/12/03 13:31:52;;;;;;;18.20;9.07;;;;;;;;;;5056513;28;20541;-56
2022/12/03 13:34:49;;;;;;;14.10;8.67;;;;;;;;;;5028289;28;20434;-54
2022/12/03 13:37:25;;;;;;;14.70;7.40;;;;;;;;;;5039231;28;20507;-54
2022/12/03 13:39:52;;;;;;;14.80;7.80;;;;;;;;;;5022402;28;21190;-52
2022/12/03 13:45:23;;;;;;;13.40;9.17;;;;;;;;;;5023984;28;20540;-53
2022/12/03 13:47:53;;;;;;;14.77;9.63;;;;;;;;;;5059475;28;20429;-53
2022/12/03 13:50:39;;;;;;;16.33;8.70;;;;;;;;;;5003250;28;20474;-54
2022/12/03 13:53:11;;;;;;;19.77;9.47;;;;;;;;;;5029620;28;20472;-55
2022/12/03 13:55:43;;;;;;;18.57;9.03;;;;;;;;;;5036089;28;20539;-55
2022/12/03 13:58:09;;;;;;;14.50;8.03;;;;;;;;;;5029018;28;20449;-59
2022/12/03 14:00:35;;;;;;;16.90;9.30;;;;;;;;;;5018077;28;20472;-54
2022/12/03 14:03:04;;;;;;;17.23;10.03;;;;;;;;;;5023239;28;20501;-55
2022/12/03 14:05:30;;;;;;;13.20;8.53;;;;;;;;;;5045655;28;20445;-54
2022/12/03 14:08:00;;;;;;;15.47;8.53;;;;;;;;;;5027375;28;20437;-55
2022/12/03 14:10:27;;;;;;;19.73;9.90;;;;;;;;;;5039025;28;20429;-55
2022/12/03 14:12:53;;;;;;;18.63;10.00;;;;;;;;;;5010191;28;20484;-55
2022/12/03 14:15:20;;;;;;;15.37;9.10;;;;;;;;;;5039860;28;22586;-56
2022/12/03 14:17:46;;;;;;;16.27;9.60;;;;;;;;;;5021005;28;20824;-55
2022/12/03 14:20:12;;;;;;;17.80;9.60;;;;;;;;;;5051509;28;20551;-57
2022/12/03 14:22:38;;;;;;;25.83;9.43;;;;;;;;;;5028742;28;20919;-56
2022/12/03 14:25:04;;;;;;;19.30;10.87;;;;;;;;;;5044471;28;20455;-57
2022/12/03 14:27:30;;;;;;;17.13;8.10;;;;;;;;;;5025093;28;20468;-54
2022/12/03 14:29:57;;;;;;;16.40;9.20;;;;;;;;;;5051254;28;20421;-57
2022/12/03 14:32:23;;;;;;;17.63;8.77;;;;;;;;;;5003472;28;20837;-61
2022/12/03 14:34:49;;;;;;;16.20;8.17;;;;;;;;;;5045558;28;20430;-56
2022/12/03 14:37:14;;;;;;;14.80;7.63;;;;;;;;;;5052449;28;20451;-55
2022/12/03 14:39:40;;;;;;;20.53;9.27;;;;;;;;;;5052043;28;20918;-55
2022/12/03 14:42:12;;;;;;;15.73;8.63;;;;;;;;;;5029204;28;20934;-56
2022/12/03 14:44:45;;;;;;;18.27;8.87;;;;;;;;;;5035196;28;20439;-57
2022/12/03 14:47:11;;;;;;;19.30;8.80;;;;;;;;;;5019473;28;20437;-55
2022/12/03 14:49:37;;;;;;;16.10;9.70;;;;;;;;;;5044724;28;20437;-54
2022/12/03 14:52:03;;;;;;;16.70;8.87;;;;;;;;;;5027819;28;20488;-55
2022/12/03 14:54:29;;;;;;;14.97;8.03;;;;;;;;;;5050667;28;21223;-54
2022/12/03 14:56:57;;;;;;;13.03;7.60;;;;;;;;;;5030845;28;20437;-55